createdAt,value
2022-11-11T00:02:56.042Z,9.90
2022-11-11T00:06:17.572Z,10.05
2022-11-11T00:09:39.013Z,10.67
2022-11-11T00:13:05.275Z,11.52
2022-11-11T00:16:46.621Z,14.70
2022-11-11T00:20:31.201Z,12.25
2022-11-11T00:24:13.945Z,11.18
2022-11-11T00:27:36.492Z,10.97
2022-11-11T00:31:12.040Z,10.18
2022-11-11T00:34:33.349Z,9.98
2022-11-11T00:37:54.373Z,10.15
2022-11-11T00:41:18.415Z,11.60
2022-11-11T00:44:39.649Z,10.77
2022-11-11T00:48:19.222Z,10.82
2022-11-11T00:51:41.407Z,9.60
2022-11-11T00:55:03.046Z,10.70
2022-11-11T00:58:25.243Z,12.43
2022-11-11T01:01:46.825Z,11.07
2022-11-11T01:05:08.364Z,11.13
2022-11-11T01:08:31.127Z,11.68
2022-11-11T01:11:52.387Z,10.55
2022-11-11T01:15:13.616Z,11.18
2022-11-11T01:18:35.160Z,10.43
2022-11-11T01:21:57.053Z,11.10
2022-11-11T01:25:18.628Z,11.13
2022-11-11T01:28:40.753Z,11.73
2022-11-11T01:32:02.044Z,12.18
2022-11-11T01:35:23.569Z,11.63
2022-11-11T01:38:50.078Z,13.05
2022-11-11T01:42:11.881Z,12.40
2022-11-11T01:45:56.105Z,11.95
2022-11-11T01:49:36.491Z,12.13
2022-11-11T01:52:57.870Z,12.27
2022-11-11T01:56:19.813Z,11.57
2022-11-11T01:59:45.122Z,11.77
2022-11-11T02:03:09.749Z,12.10
2022-11-11T02:06:32.559Z,11.88
2022-11-11T02:09:56.416Z,11.43
2022-11-11T02:13:36.520Z,11.75
2022-11-11T02:16:58.769Z,12.88
2022-11-11T02:20:26.499Z,13.10
2022-11-11T02:24:06.301Z,13.27
2022-11-11T02:27:31.149Z,14.20
2022-11-11T02:30:52.707Z,17.52
2022-11-11T02:34:14.360Z,21.70
2022-11-11T02:37:35.770Z,29.20
2022-11-11T02:41:15.787Z,17.73
2022-11-11T02:44:38.177Z,14.50
2022-11-11T02:47:59.717Z,14.30
2022-11-11T02:51:20.917Z,14.15
2022-11-11T02:54:43.908Z,14.23
2022-11-11T02:58:05.185Z,15.18
2022-11-11T03:01:26.651Z,15.33
2022-11-11T03:04:47.774Z,16.15
2022-11-11T03:08:09.407Z,19.58
2022-11-11T03:11:31.351Z,15.82
2022-11-11T03:14:52.829Z,17.58
2022-11-11T03:18:14.382Z,16.07
2022-11-11T03:25:57.066Z,17.25
2022-11-11T03:29:19.471Z,16.80
2022-11-11T03:32:41.117Z,17.38
2022-11-11T03:36:02.358Z,15.90
2022-11-11T03:39:28.270Z,16.42
2022-11-11T03:42:49.973Z,16.42
2022-11-11T03:46:11.541Z,17.63
2022-11-11T03:49:32.937Z,16.77
2022-11-11T03:52:54.197Z,15.07
2022-11-11T03:56:15.665Z,15.32
2022-11-11T03:59:36.768Z,15.45
2022-11-11T04:03:29.542Z,16.10
2022-11-11T04:07:09.460Z,16.25
2022-11-11T04:10:32.283Z,14.87
2022-11-11T04:14:14.351Z,14.70
2022-11-11T04:17:35.229Z,14.77
2022-11-11T04:21:14.661Z,16.85
2022-11-11T04:24:55.202Z,16.88
2022-11-11T04:28:35.332Z,16.17
2022-11-11T04:32:16.092Z,15.80
2022-11-11T04:35:37.175Z,16.67
2022-11-11T04:39:17.098Z,16.38
2022-11-11T04:42:41.810Z,16.25
2022-11-11T04:46:03.369Z,15.43
2022-11-11T04:49:24.986Z,17.80
2022-11-11T04:52:46.504Z,17.02
2022-11-11T04:56:27.609Z,16.25
2022-11-11T04:59:48.586Z,14.90
2022-11-11T05:03:24.081Z,14.87
2022-11-11T05:07:04.699Z,14.63
2022-11-11T05:10:32.834Z,14.55
2022-11-11T05:14:14.267Z,14.68
2022-11-11T05:17:54.405Z,16.73
2022-11-11T05:21:23.741Z,15.23
2022-11-11T05:25:03.775Z,15.35
2022-11-11T05:28:24.756Z,14.73
2022-11-11T05:31:51.317Z,15.05
2022-11-11T05:35:14.211Z,14.93
2022-11-11T05:38:35.532Z,15.50
2022-11-11T05:41:56.657Z,13.93
2022-11-11T05:45:18.114Z,14.85
2022-11-11T05:48:59.545Z,16.08
2022-11-11T05:52:20.850Z,16.00
2022-11-11T05:55:42.136Z,18.90
2022-11-11T05:59:03.601Z,21.27
2022-11-11T06:02:24.743Z,24.88
2022-11-11T06:05:46.038Z,22.02
2022-11-11T06:09:07.597Z,21.70
2022-11-11T06:12:49.230Z,26.73
2022-11-11T06:16:11.101Z,24.75
2022-11-11T06:19:32.567Z,24.92
2022-11-11T06:22:57.084Z,22.70
2022-11-11T06:26:18.456Z,23.73
2022-11-11T06:29:40.074Z,21.20
2022-11-11T06:33:01.896Z,19.88
2022-11-11T06:36:23.340Z,19.30
2022-11-11T06:39:44.386Z,25.20
2022-11-11T06:43:05.462Z,23.65
2022-11-11T06:46:27.355Z,21.07
2022-11-11T06:49:48.880Z,18.00
2022-11-11T06:57:17.054Z,20.45
2022-11-11T07:00:40.044Z,24.63
2022-11-11T07:04:05.832Z,20.03
2022-11-11T07:07:28.557Z,11.65
2022-11-11T07:11:12.782Z,9.18
2022-11-11T07:14:55.050Z,8.45
2022-11-11T07:18:31.705Z,9.25
2022-11-11T07:21:53.623Z,9.83
2022-11-11T07:25:27.053Z,10.75
2022-11-11T07:28:51.490Z,8.48
2022-11-11T07:32:13.418Z,8.00
2022-11-11T07:35:34.742Z,9.35
2022-11-11T07:38:56.104Z,9.20
2022-11-11T07:42:31.065Z,9.40
2022-11-11T07:45:52.819Z,9.13
2022-11-11T07:49:14.286Z,9.68
2022-11-11T07:52:37.647Z,10.05
2022-11-11T07:55:59.288Z,8.83
2022-11-11T07:59:20.883Z,8.85
2022-11-11T08:02:48.008Z,8.43
2022-11-11T08:06:09.336Z,8.75
2022-11-11T08:09:31.820Z,8.68
2022-11-11T08:13:13.713Z,10.53
2022-11-11T08:16:35.339Z,11.18
2022-11-11T08:19:56.239Z,13.43
2022-11-11T08:23:49.748Z,12.05
2022-11-11T08:27:03.668Z,12.25
2022-11-11T08:30:26.343Z,12.83
2022-11-11T08:33:48.967Z,13.55
2022-11-11T08:37:10.580Z,11.35
2022-11-11T08:40:31.609Z,11.10
2022-11-11T08:43:55.513Z,10.80
2022-11-11T08:47:16.860Z,10.87
2022-11-11T08:50:39.519Z,10.50
2022-11-11T08:54:01.439Z,10.80
2022-11-11T08:57:29.707Z,9.95
2022-11-11T09:00:59.626Z,10.00
2022-11-11T09:08:07.037Z,9.27
2022-11-11T09:11:28.700Z,9.52
2022-11-11T09:14:50.361Z,9.70
2022-11-11T09:18:12.115Z,9.82
2022-11-11T09:21:33.228Z,9.77
2022-11-11T09:24:54.698Z,9.48
2022-11-11T09:28:15.824Z,10.30
2022-11-11T09:31:44.580Z,9.95
2022-11-11T09:35:07.250Z,9.65
2022-11-11T09:38:28.776Z,8.70
2022-11-11T09:42:17.623Z,8.82
2022-11-11T09:45:43.292Z,9.02
2022-11-11T09:49:28.577Z,8.35
2022-11-11T09:53:25.878Z,8.68
2022-11-11T09:56:47.773Z,7.60
2022-11-11T10:00:24.820Z,7.13
2022-11-11T10:03:51.919Z,6.32
2022-11-11T10:07:23.169Z,6.28
2022-11-11T10:10:46.507Z,7.10
2022-11-11T10:14:08.080Z,6.37
2022-11-11T10:17:58.381Z,6.10
2022-11-11T10:22:06.225Z,6.82
2022-11-11T10:25:26.731Z,6.57
2022-11-11T10:28:50.818Z,7.20
2022-11-11T10:32:20.726Z,6.83
2022-11-11T10:35:42.962Z,6.65
2022-11-11T10:39:06.015Z,6.90
2022-11-11T10:42:27.204Z,6.65
2022-11-11T10:46:01.210Z,6.47
2022-11-11T10:49:26.189Z,7.27
2022-11-11T10:53:11.769Z,6.10
2022-11-11T10:56:38.852Z,6.60
2022-11-11T11:00:13.203Z,6.47
2022-11-11T11:03:41.076Z,6.10
2022-11-11T11:07:06.262Z,6.03
2022-11-11T11:10:37.887Z,5.72
2022-11-11T11:14:03.488Z,5.60
2022-11-11T11:17:35.588Z,5.68
2022-11-11T11:21:03.558Z,5.18
2022-11-11T11:24:28.888Z,4.73
2022-11-11T11:27:52.278Z,4.97
2022-11-11T11:31:13.353Z,5.07
2022-11-11T11:34:46.729Z,4.75
2022-11-11T11:38:10.248Z,5.10
2022-11-11T11:41:58.080Z,4.60
2022-11-11T11:45:31.220Z,5.25
2022-11-11T11:49:16.831Z,5.75
2022-11-11T11:52:50.741Z,5.60
2022-11-11T11:56:12.199Z,5.50
2022-11-11T11:59:54.155Z,4.90
2022-11-11T12:03:37.501Z,5.28
2022-11-11T12:07:05.033Z,5.68
2022-11-11T12:10:47.551Z,5.38
2022-11-11T12:14:27.596Z,5.80
2022-11-11T12:18:25.753Z,5.63
2022-11-11T12:22:12.446Z,6.07
2022-11-11T12:25:48.341Z,6.03
2022-11-11T12:29:12.819Z,5.90
2022-11-11T12:33:01.329Z,6.15
2022-11-11T12:36:51.908Z,6.67
2022-11-11T12:40:34.628Z,7.07
2022-11-11T12:44:11.094Z,6.25
2022-11-11T12:47:51.057Z,6.72
2022-11-11T12:51:31.574Z,6.85
2022-11-11T12:55:08.525Z,6.40
2022-11-11T12:58:48.291Z,6.20
2022-11-11T13:02:43.639Z,6.90
2022-11-11T13:06:28.106Z,6.35
2022-11-11T13:09:57.558Z,7.90
2022-11-11T13:13:30.068Z,7.53
2022-11-11T13:16:53.072Z,8.52
2022-11-11T13:20:51.897Z,8.90
2022-11-11T13:24:16.187Z,8.25
2022-11-11T13:27:50.738Z,8.90
2022-11-11T13:31:15.782Z,8.30
2022-11-11T13:34:38.005Z,8.90
2022-11-11T13:37:59.222Z,9.00
2022-11-11T13:41:30.700Z,9.07
2022-11-11T13:45:00.944Z,8.27
2022-11-11T13:48:25.651Z,9.67
2022-11-11T13:51:57.678Z,9.60
2022-11-11T13:55:31.099Z,10.65
2022-11-11T13:58:54.784Z,9.75
2022-11-11T14:02:19.158Z,9.13
2022-11-11T14:05:40.474Z,9.43
2022-11-11T14:09:02.397Z,9.60
2022-11-11T14:12:36.688Z,10.20
2022-11-11T14:15:57.625Z,9.23
2022-11-11T14:19:18.627Z,8.48
2022-11-11T14:22:40.141Z,8.67
2022-11-11T14:26:11.382Z,8.90
2022-11-11T14:29:37.903Z,9.60
2022-11-11T14:33:19.387Z,9.13
2022-11-11T14:36:58.004Z,11.68
2022-11-11T14:40:30.905Z,10.43
2022-11-11T14:43:52.527Z,10.27
2022-11-11T14:47:13.803Z,13.60
2022-11-11T14:50:35.281Z,13.40
2022-11-11T14:53:57.499Z,21.15
2022-11-11T14:57:25.976Z,23.43
2022-11-11T15:01:08.744Z,34.35
2022-11-11T15:04:38.033Z,43.40
2022-11-11T15:08:14.939Z,47.50
2022-11-11T15:12:05.559Z,48.58
2022-11-11T15:15:50.380Z,50.73
2022-11-11T15:19:26.940Z,48.35
2022-11-11T15:23:15.280Z,49.58
2022-11-11T15:26:49.910Z,49.78
2022-11-11T15:30:18.798Z,53.65
2022-11-11T15:34:09.317Z,57.30
2022-11-11T15:37:31.358Z,57.70
2022-11-11T15:41:03.583Z,57.42
2022-11-11T15:44:29.658Z,56.40
2022-11-11T15:47:53.517Z,52.70
2022-11-11T15:51:17.237Z,53.90
2022-11-11T15:54:39.374Z,51.85
2022-11-11T15:58:29.455Z,51.38
2022-11-11T16:01:57.647Z,49.72
2022-11-11T16:05:33.867Z,50.60
2022-11-11T16:08:58.540Z,49.37
2022-11-11T16:12:47.389Z,48.58
2022-11-11T16:16:59.185Z,47.33
2022-11-11T16:20:29.625Z,47.80
2022-11-11T16:23:54.835Z,49.60
2022-11-11T16:27:25.632Z,51.57
2022-11-11T16:30:47.158Z,52.95
2022-11-11T16:34:28.426Z,52.00
2022-11-11T16:37:54.816Z,70.35
2022-11-11T16:41:32.143Z,78.00
2022-11-11T16:45:02.376Z,69.87
2022-11-11T16:48:34.466Z,73.82
2022-11-11T16:51:56.425Z,56.95
2022-11-11T16:55:20.727Z,48.70
2022-11-11T16:58:43.950Z,50.75
2022-11-11T17:02:16.853Z,54.23
2022-11-11T17:05:59.020Z,54.75
2022-11-11T17:09:34.442Z,57.50
2022-11-11T17:12:55.646Z,51.63
2022-11-11T17:16:16.995Z,46.25
2022-11-11T17:19:38.585Z,43.03
2022-11-11T17:23:00.159Z,41.55
2022-11-11T17:26:21.588Z,41.22
2022-11-11T17:29:42.765Z,41.00
2022-11-11T17:33:04.759Z,38.92
2022-11-11T17:36:26.105Z,43.20
2022-11-11T17:39:47.308Z,44.17
2022-11-11T17:43:09.120Z,47.72
2022-11-11T17:46:30.502Z,49.17
2022-11-11T17:49:57.037Z,48.63
2022-11-11T17:53:18.824Z,47.73
2022-11-11T17:56:40.056Z,46.30
2022-11-11T18:00:01.293Z,48.97
2022-11-11T18:03:22.783Z,45.95
2022-11-11T18:06:44.308Z,47.92
2022-11-11T18:11:25.500Z,52.77
2022-11-11T18:14:46.699Z,49.95
2022-11-11T18:18:08.413Z,46.38
2022-11-11T18:21:29.779Z,46.08
2022-11-11T18:24:50.970Z,45.75
2022-11-11T18:28:12.287Z,49.10
2022-11-11T18:31:34.253Z,47.60
2022-11-11T18:34:55.486Z,48.83
2022-11-11T18:38:16.663Z,46.92
2022-11-11T18:41:38.204Z,49.20
2022-11-11T18:44:59.797Z,50.43
2022-11-11T18:48:21.042Z,50.53
2022-11-11T18:51:42.660Z,53.28
2022-11-11T18:55:05.018Z,65.88
2022-11-11T18:58:26.492Z,131.30
2022-11-11T19:01:53.219Z,121.13
2022-11-11T19:05:16.079Z,126.78
2022-11-11T19:08:38.220Z,141.07
2022-11-11T19:11:59.877Z,104.40
2022-11-11T19:15:21.084Z,85.25
2022-11-11T19:18:42.993Z,74.03
2022-11-11T19:22:04.601Z,70.93
2022-11-11T19:25:25.784Z,59.42
2022-11-11T19:28:47.628Z,57.10
2022-11-11T19:32:09.047Z,55.72
2022-11-11T19:35:30.478Z,60.70
2022-11-11T19:38:51.745Z,62.42
2022-11-11T19:42:12.971Z,58.22
2022-11-11T19:45:36.898Z,46.20
2022-11-11T19:49:00.509Z,47.42
2022-11-11T19:52:22.327Z,44.00
2022-11-11T19:55:43.983Z,44.35
2022-11-11T19:59:06.094Z,33.75
2022-11-11T20:02:28.361Z,34.35
2022-11-11T20:05:50.348Z,35.10
2022-11-11T20:09:11.514Z,31.50
2022-11-11T20:12:33.819Z,39.63
2022-11-11T20:15:56.196Z,45.85
2022-11-11T20:19:17.744Z,46.72
2022-11-11T20:22:38.797Z,45.45
2022-11-11T20:26:07.404Z,41.80
2022-11-11T20:29:29.436Z,44.40
2022-11-11T20:32:50.581Z,47.45
2022-11-11T20:36:13.834Z,75.95
2022-11-11T20:39:35.354Z,81.25
2022-11-11T20:42:59.578Z,67.03
2022-11-11T20:46:20.948Z,45.97
2022-11-11T20:49:42.689Z,42.92
2022-11-11T20:53:04.218Z,41.20
2022-11-11T20:56:26.585Z,40.28
2022-11-11T20:59:47.607Z,58.17
2022-11-11T21:03:09.079Z,60.30
2022-11-11T21:06:31.157Z,65.95
2022-11-11T21:09:52.938Z,60.05
2022-11-11T21:13:14.427Z,38.40
2022-11-11T21:16:35.804Z,31.50
2022-11-11T21:19:58.129Z,32.85
2022-11-11T21:23:19.449Z,27.45
2022-11-11T21:26:41.053Z,21.88
2022-11-11T21:30:02.770Z,22.63
2022-11-11T21:33:24.429Z,26.53
2022-11-11T21:36:45.977Z,27.55
2022-11-11T21:40:07.880Z,29.40
2022-11-11T21:43:29.578Z,29.35
2022-11-11T21:46:51.219Z,35.13
2022-11-11T21:50:12.360Z,41.40
2022-11-11T21:53:34.800Z,35.95
2022-11-11T21:56:56.068Z,36.85
2022-11-11T22:00:18.047Z,40.00
2022-11-11T22:03:41.408Z,44.63
2022-11-11T22:07:02.738Z,53.77
2022-11-11T22:10:24.409Z,71.07
2022-11-11T22:13:45.866Z,45.83
2022-11-11T22:17:06.717Z,38.55
2022-11-11T22:20:27.949Z,31.83
2022-11-11T22:23:52.079Z,28.40
2022-11-11T22:27:13.244Z,27.23
2022-11-11T22:30:35.006Z,29.77
2022-11-11T22:34:00.195Z,28.20
2022-11-11T22:37:22.951Z,25.30
2022-11-11T22:40:44.147Z,25.47
2022-11-11T22:44:05.837Z,26.35
2022-11-11T22:47:27.243Z,26.80
2022-11-11T22:50:48.568Z,21.52
2022-11-11T22:54:18.014Z,19.95
2022-11-11T22:57:39.151Z,25.33
2022-11-11T23:01:07.727Z,23.48
2022-11-11T23:04:29.172Z,23.17
2022-11-11T23:07:50.669Z,26.10
2022-11-11T23:11:14.938Z,24.75
2022-11-11T23:14:36.534Z,26.37
2022-11-11T23:18:00.856Z,26.40
2022-11-11T23:21:24.311Z,26.95
2022-11-11T23:24:45.702Z,23.30
2022-11-11T23:28:06.835Z,21.85
2022-11-11T23:31:30.673Z,24.67
2022-11-11T23:34:52.085Z,22.08
2022-11-11T23:38:13.384Z,19.73
2022-11-11T23:41:34.857Z,21.77
2022-11-11T23:44:55.969Z,22.05
2022-11-11T23:48:17.134Z,19.37
2022-11-11T23:51:38.542Z,21.38
2022-11-11T23:55:00.213Z,20.92
2022-11-11T23:58:21.406Z,19.92
